Time;durP1;ratioP1;P1;durP2;ratioP2;P2;SDS_P1;SDS_P2;PMS_P1;PMS_P2;Temp;Humidity;BMP_temperature;BMP_pressure;BME280_temperature;BME280_humidity;BME280_pressure;Samples;Min_cycle;Max_cycle;Signal;HPM_P1;HPM_P2
2022/11/12 00:00:01;;;;;;;533.72;479.30;;;;;;;5.27;100.00;99545.56;7386668;19;20015;-52
2022/11/12 00:02:53;;;;;;;513.30;461.02;;;;;;;5.27;100.00;99543.84;7388122;19;20010;-52
2022/11/12 00:05:53;;;;;;;519.20;465.80;;;;;;;5.36;100.00;99545.41;7382354;19;20014;-48
2022/11/12 00:08:46;;;;;;;504.30;452.52;;;;;;;5.14;100.00;99537.09;7388055;19;20014;-52
2022/11/12 00:11:40;;;;;;;507.80;456.25;;;;;;;5.16;100.00;99540.56;7387149;19;20021;-52
2022/11/12 00:14:34;;;;;;;529.20;476.10;;;;;;;5.13;100.00;99531.00;7384815;19;20896;-52
2022/11/12 00:17:26;;;;;;;518.28;465.00;;;;;;;4.95;100.00;99531.34;7384849;19;20003;-59
2022/11/12 00:20:20;;;;;;;513.25;460.73;;;;;;;5.06;100.00;99539.00;7387360;19;20026;-51
2022/11/12 00:23:14;;;;;;;510.58;458.48;;;;;;;5.20;100.00;99544.81;7388629;19;20008;-50
2022/11/12 00:26:09;;;;;;;507.98;454.67;;;;;;;5.04;100.00;99546.84;7383580;19;20033;-52
2022/11/12 00:29:03;;;;;;;506.00;453.95;;;;;;;4.98;100.00;99551.28;7386572;19;20089;-52
2022/11/12 00:31:55;;;;;;;510.10;458.30;;;;;;;4.94;100.00;99549.63;7382177;19;20010;-50
2022/11/12 00:34:47;;;;;;;538.85;485.05;;;;;;;4.96;100.00;99543.50;7383715;19;20030;-49
2022/11/12 00:37:39;;;;;;;516.08;463.40;;;;;;;4.85;100.00;99550.63;7386896;19;20024;-52
2022/11/12 00:40:35;;;;;;;522.72;469.63;;;;;;;5.22;100.00;99552.63;7388777;19;20415;-49
2022/11/12 00:43:27;;;;;;;503.55;451.73;;;;;;;5.00;100.00;99554.72;7388117;19;20015;-51
2022/11/12 00:46:21;;;;;;;517.40;464.27;;;;;;;5.03;100.00;99552.06;7381087;19;20010;-58
2022/11/12 00:49:16;;;;;;;508.75;456.17;;;;;;;5.18;100.00;99543.97;7387673;19;20006;-50
2022/11/12 00:52:10;;;;;;;519.50;467.02;;;;;;;4.89;100.00;99556.63;7387912;19;20010;-49
2022/11/12 00:55:02;;;;;;;520.45;466.40;;;;;;;4.96;100.00;99543.50;7378653;19;20018;-53
2022/11/12 00:57:57;;;;;;;530.35;477.35;;;;;;;4.64;100.00;99544.88;7387390;19;20022;-52
2022/11/12 01:00:48;;;;;;;510.17;457.95;;;;;;;4.73;100.00;99545.63;7386797;19;20031;-52
2022/11/12 01:03:41;;;;;;;529.00;474.95;;;;;;;4.93;100.00;99553.97;7382554;19;20002;-50
2022/11/12 01:06:33;;;;;;;513.78;461.60;;;;;;;4.55;100.00;99548.50;7384693;19;20017;-59
2022/11/12 01:09:25;;;;;;;508.48;456.95;;;;;;;4.59;100.00;99559.72;7385521;19;20536;-49
2022/11/12 01:12:20;;;;;;;515.53;463.48;;;;;;;4.73;100.00;99557.78;7386560;19;20007;-52
2022/11/12 01:15:15;;;;;;;518.78;466.20;;;;;;;4.55;100.00;99556.31;7378747;19;20019;-57
2022/11/12 01:18:07;;;;;;;509.13;457.27;;;;;;;4.73;100.00;99555.19;7385377;19;20010;-54
2022/11/12 01:20:58;;;;;;;499.40;447.25;;;;;;;4.58;100.00;99540.66;7385756;19;20011;-48
2022/11/12 01:23:50;;;;;;;517.35;464.35;;;;;;;4.81;100.00;99550.69;7381984;19;20074;-49
2022/11/12 01:26:49;;;;;;;509.23;457.20;;;;;;;4.53;100.00;99567.66;7386726;19;20044;-51
2022/11/12 01:29:41;;;;;;;510.13;457.95;;;;;;;4.36;100.00;99569.63;7387311;19;20022;-50
2022/11/12 01:32:39;;;;;;;515.42;462.33;;;;;;;4.42;100.00;99565.19;7384498;19;20018;-52
2022/11/12 01:35:31;;;;;;;505.48;452.55;;;;;;;4.46;100.00;99560.81;7379351;19;20014;-59
2022/11/12 01:38:23;;;;;;;490.33;439.38;;;;;;;4.46;100.00;99561.66;7383726;19;20077;-50
2022/11/12 01:41:21;;;;;;;508.13;455.98;;;;;;;4.37;100.00;99563.53;7384429;19;19998;-49
2022/11/12 01:44:18;;;;;;;518.75;464.63;;;;;;;4.77;100.00;99557.72;7386845;19;20010;-50
2022/11/12 01:47:16;;;;;;;507.05;453.58;;;;;;;4.47;100.00;99554.72;7393151;19;20011;-52
2022/11/12 01:50:23;;;;;;;512.47;459.55;;;;;;;4.34;100.00;99566.16;7391498;19;20014;-54
2022/11/12 01:53:19;;;;;;;512.83;459.75;;;;;;;4.43;100.00;99573.88;7392103;19;20342;-49
2022/11/12 01:56:12;;;;;;;521.00;467.52;;;;;;;4.48;100.00;99564.25;7390516;19;20010;-55
2022/11/12 01:59:10;;;;;;;536.25;481.35;;;;;;;4.54;100.00;99562.41;7385962;19;20011;-53
2022/11/12 02:02:03;;;;;;;521.42;468.10;;;;;;;3.95;100.00;99561.50;7393892;19;20010;-55
2022/11/12 02:04:57;;;;;;;530.60;476.55;;;;;;;3.83;100.00;99566.88;7393693;19;20019;-49
2022/11/12 02:07:53;;;;;;;541.30;486.00;;;;;;;4.38;100.00;99573.06;7390424;19;20346;-52
2022/11/12 02:10:45;;;;;;;522.45;468.83;;;;;;;4.29;100.00;99570.59;7388089;19;20447;-60
2022/11/12 02:16:44;;;;;;;525.85;472.17;;;;;;;3.80;100.00;99564.25;7389195;19;20027;-50
2022/11/12 02:19:36;;;;;;;531.15;476.45;;;;;;;4.34;100.00;99567.03;7389222;19;20022;-49
2022/11/12 02:22:33;;;;;;;529.00;475.70;;;;;;;3.80;100.00;99564.25;7389575;19;21102;-57
2022/11/12 02:25:28;;;;;;;521.75;468.85;;;;;;;3.76;100.00;99559.97;7390983;19;20397;-50
2022/11/12 02:28:21;;;;;;;507.38;455.25;;;;;;;3.98;100.00;99562.31;7391906;19;20013;-54
2022/11/12 02:31:13;;;;;;;517.90;464.15;;;;;;;4.01;100.00;99561.41;7385190;19;20044;-47
2022/11/12 02:34:05;;;;;;;521.90;469.60;;;;;;;3.92;100.00;99558.94;7390254;19;20017;-48
2022/11/12 02:36:57;;;;;;;519.22;465.52;;;;;;;3.92;100.00;99566.75;7389685;19;20007;-54
2022/11/12 02:39:51;;;;;;;536.40;481.90;;;;;;;4.06;100.00;99552.66;7386078;19;20018;-54
2022/11/12 02:42:43;;;;;;;516.13;463.20;;;;;;;3.85;100.00;99554.69;7390065;19;20055;-50
2022/11/12 02:45:35;;;;;;;543.03;489.10;;;;;;;4.13;100.00;99561.28;7388316;19;20007;-54
2022/11/12 02:48:27;;;;;;;541.40;486.60;;;;;;;3.94;100.00;99560.63;7388457;19;20018;-53
2022/11/12 02:51:23;;;;;;;527.38;474.83;;;;;;;3.79;100.00;99565.13;7390879;19;20470;-56
2022/11/12 02:54:15;;;;;;;519.80;466.83;;;;;;;3.80;100.00;99561.66;7389329;19;20036;-53
2022/11/12 02:57:09;;;;;;;533.72;480.17;;;;;;;3.87;100.00;99552.94;7388253;19;20014;-53
2022/11/12 03:00:02;;;;;;;534.13;479.73;;;;;;;3.91;100.00;99559.81;7384569;19;20342;-55
2022/11/12 03:03:04;;;;;;;516.13;463.67;;;;;;;3.97;100.00;99568.41;7389053;19;20011;-50
2022/11/12 03:06:01;;;;;;;519.75;466.95;;;;;;;4.04;100.00;99566.56;7389052;19;20492;-50
2022/11/12 03:08:56;;;;;;;517.13;463.92;;;;;;;3.80;100.00;99566.84;7390204;19;20117;-53
2022/11/12 03:11:48;;;;;;;527.72;472.77;;;;;;;3.74;100.00;99561.72;7384225;19;20014;-54
2022/11/12 03:14:43;;;;;;;513.20;460.75;;;;;;;3.80;100.00;99561.66;7387785;19;20021;-52
2022/11/12 03:17:40;;;;;;;507.73;455.30;;;;;;;3.69;100.00;99560.91;7387158;19;20110;-54
2022/11/12 03:20:33;;;;;;;509.50;456.90;;;;;;;3.77;100.00;99564.28;7387437;19;20007;-51
2022/11/12 03:23:25;;;;;;;505.15;453.83;;;;;;;3.72;100.00;99553.09;7388564;19;20010;-58
2022/11/12 03:26:17;;;;;;;515.03;462.85;;;;;;;3.81;100.00;99563.41;7390718;19;20011;-52
2022/11/12 03:29:09;;;;;;;530.53;475.63;;;;;;;3.86;100.00;99559.00;7390149;19;20006;-54
2022/11/12 03:32:03;;;;;;;514.80;461.90;;;;;;;3.74;100.00;99567.78;7385445;19;20010;-59
2022/11/12 03:34:55;;;;;;;525.17;472.05;;;;;;;3.84;100.00;99560.78;7389279;19;20016;-55
2022/11/12 03:37:46;;;;;;;524.67;471.15;;;;;;;3.69;100.00;99568.72;7385889;19;20558;-53
2022/11/12 03:40:39;;;;;;;541.33;486.77;;;;;;;3.55;100.00;99566.28;7384470;19;20013;-58
2022/11/12 03:43:31;;;;;;;526.35;472.90;;;;;;;4.04;100.00;99566.56;7389319;19;20132;-55
2022/11/12 03:46:23;;;;;;;532.70;478.85;;;;;;;3.98;100.00;99570.13;7389669;19;20414;-53
2022/11/12 03:49:17;;;;;;;534.92;479.63;;;;;;;3.97;100.00;99560.59;7383208;19;20022;-56
2022/11/12 03:52:09;;;;;;;519.08;465.42;;;;;;;4.15;100.00;99556.88;7387840;19;20448;-54
2022/11/12 03:55:01;;;;;;;517.03;463.50;;;;;;;3.90;100.00;99558.06;7388806;19;20025;-54
2022/11/12 03:57:55;;;;;;;534.67;480.27;;;;;;;3.93;100.00;99543.31;7380634;19;20102;-54
2022/11/12 04:00:51;;;;;;;515.63;462.42;;;;;;;3.96;100.00;99556.28;7386939;19;20026;-52
2022/11/12 04:03:43;;;;;;;516.95;463.50;;;;;;;3.85;100.00;99554.69;7388787;19;20018;-50
2022/11/12 04:09:41;;;;;;;530.60;475.65;;;;;;;3.79;100.00;99554.69;7382918;19;20018;-54
2022/11/12 04:15:37;;;;;;;536.17;482.02;;;;;;;3.76;100.00;99555.59;7385165;19;20049;-54
2022/11/12 04:21:57;;;;;;;529.22;476.27;;;;;;;3.81;100.00;99545.19;7388427;19;20041;-53
2022/11/12 04:27:53;;;;;;;579.53;518.22;;;;;;;3.84;100.00;99542.56;7386180;19;20010;-53
2022/11/12 04:30:42;;;;;;;778.35;588.15;;;;;;;3.59;100.00;99541.09;7389019;19;20032;-50
2022/11/12 04:33:37;;;;;;;875.28;619.75;;;;;;;3.94;100.00;99536.34;7388270;19;20028;-51
2022/11/12 04:36:28;;;;;;;942.08;670.63;;;;;;;3.71;100.00;99530.53;7382604;19;20410;-53
2022/11/12 04:39:26;;;;;;;934.15;658.28;;;;;;;3.68;100.00;99527.94;7387129;19;20007;-59
2022/11/12 04:45:22;;;;;;;888.45;618.35;;;;;;;3.84;100.00;99526.94;7387320;19;20010;-53
2022/11/12 04:48:14;;;;;;;836.90;603.00;;;;;;;3.74;100.00;99530.50;7384940;19;20113;-51
2022/11/12 04:52:03;;;;;;;601.05;527.45;;;;;;;3.75;100.00;99522.66;7385586;19;20014;-58
2022/11/12 04:54:23;;;;;;;522.25;468.20;;;;;;;3.66;100.00;99527.13;7382943;19;20010;-58
2022/11/12 04:57:15;;;;;;;524.03;470.70;;;;;;;3.89;100.00;99520.81;7384631;19;20021;-54
2022/11/12 05:00:14;;;;;;;528.40;475.20;;;;;;;3.91;100.00;99521.63;7386864;19;20488;-51
2022/11/12 05:03:08;;;;;;;560.90;505.20;;;;;;;3.68;100.00;99522.75;7382465;19;20034;-52
2022/11/12 05:06:50;;;;;;;539.88;486.45;;;;;;;3.77;100.00;99523.53;7386853;19;20343;-60
2022/11/12 05:09:20;;;;;;;534.67;480.65;;;;;;;3.66;100.00;99528.00;7381716;19;20014;-59
2022/11/12 05:12:15;;;;;;;560.88;506.90;;;;;;;3.77;100.00;99526.13;7387558;19;20014;-55
2022/11/12 05:15:08;;;;;;;;;;;;;;;3.50;100.00;99520.38;7386578;19;20011;-50
2022/11/12 05:18:00;;;;;;;553.80;498.15;;;;;;;3.56;100.00;99526.38;7376142;19;20383;-50
2022/11/12 05:20:52;;;;;;;535.20;481.83;;;;;;;3.83;100.00;99533.88;7385628;19;20461;-52
2022/11/12 05:23:44;;;;;;;529.60;476.35;;;;;;;3.76;100.00;99532.19;7385573;19;20090;-51
2022/11/12 05:26:35;;;;;;;552.92;496.80;;;;;;;3.59;100.00;99535.88;7380559;19;20014;-52
2022/11/12 05:29:30;;;;;;;553.15;498.40;;;;;;;3.94;100.00;99544.13;7385566;19;20010;-53
2022/11/12 05:32:23;;;;;;;564.08;508.48;;;;;;;3.36;100.00;99551.72;7385417;19;20018;-51
2022/11/12 05:35:15;;;;;;;556.17;499.95;;;;;;;3.99;100.00;99551.00;7380795;19;20010;-53
2022/11/12 05:38:07;;;;;;;577.78;516.85;;;;;;;3.53;100.00;99559.34;7384670;19;20014;-55
2022/11/12 05:40:58;;;;;;;548.40;493.45;;;;;;;3.89;100.00;99553.75;7386743;19;20014;-54
2022/11/12 05:43:50;;;;;;;524.03;469.95;;;;;;;3.56;100.00;99561.91;7383802;19;20011;-53
2022/11/12 05:46:45;;;;;;;525.47;472.45;;;;;;;3.52;100.00;99561.09;7381307;19;20077;-59
2022/11/12 05:49:37;;;;;;;573.25;516.53;;;;;;;3.71;100.00;99567.81;7385260;19;20011;-52
2022/11/12 05:52:29;;;;;;;567.00;510.95;;;;;;;3.55;100.00;99568.88;7383439;19;20025;-52
2022/11/12 05:55:21;;;;;;;570.67;514.88;;;;;;;3.56;100.00;99577.53;7376318;19;20489;-55
2022/11/12 05:58:13;;;;;;;557.22;499.27;;;;;;;3.59;100.00;99574.88;7383692;19;20010;-53
2022/11/12 06:01:04;;;;;;;547.97;491.00;;;;;;;3.15;100.00;99575.34;7385330;19;20011;-53
2022/11/12 06:03:59;;;;;;;544.92;489.30;;;;;;;3.11;100.00;99577.97;7379882;19;20018;-52
2022/11/12 06:06:52;;;;;;;530.15;475.00;;;;;;;3.45;100.00;99579.38;7380969;19;20014;-54
2022/11/12 06:09:44;;;;;;;566.38;507.98;;;;;;;3.26;100.00;99588.22;7374982;19;20346;-53
2022/11/12 06:12:39;;;;;;;563.00;504.60;;;;;;;3.42;100.00;99584.59;7378195;19;20359;-52
2022/11/12 06:15:31;;;;;;;545.60;488.65;;;;;;;3.15;100.00;99584.88;7381601;19;20026;-53
2022/11/12 06:18:25;;;;;;;535.17;480.15;;;;;;;3.08;100.00;99583.19;7381448;19;20014;-52
2022/11/12 06:21:23;;;;;;;537.00;481.92;;;;;;;3.28;100.00;99578.69;7381717;19;20018;-54
2022/11/12 06:24:16;;;;;;;540.92;486.02;;;;;;;3.42;100.00;99584.59;7374908;19;20454;-52
2022/11/12 06:27:08;;;;;;;592.17;528.08;;;;;;;3.25;100.00;99582.16;7383699;19;20015;-50
2022/11/12 06:29:59;;;;;;;586.67;524.35;;;;;;;3.73;100.00;99586.00;7388626;19;20011;-52
2022/11/12 06:32:55;;;;;;;623.97;555.28;;;;;;;3.21;100.00;99587.41;7372980;19;20014;-53
2022/11/12 06:35:51;;;;;;;560.15;503.92;;;;;;;3.65;100.00;99593.88;7390219;19;20019;-56
2022/11/12 06:38:47;;;;;;;566.20;512.00;;;;;;;3.12;100.00;99593.56;7388861;19;20010;-52
2022/11/12 06:41:39;;;;;;;575.60;513.03;;;;;;;3.26;100.00;99590.81;7391352;19;20469;-50
2022/11/12 06:44:30;;;;;;;555.17;497.23;;;;;;;3.40;100.00;99588.97;7385004;19;20018;-59
2022/11/12 06:47:26;;;;;;;544.72;487.75;;;;;;;3.43;100.00;99591.53;7388392;19;20037;-53
2022/11/12 06:50:18;;;;;;;546.75;490.65;;;;;;;3.55;100.00;99588.81;7391713;19;20445;-52
2022/11/12 06:53:10;;;;;;;564.40;507.55;;;;;;;3.60;100.00;99589.63;7383887;19;20018;-53
2022/11/12 06:56:07;;;;;;;556.95;501.52;;;;;;;3.53;100.00;99596.63;7387249;19;20018;-53
2022/11/12 06:58:59;;;;;;;551.88;496.85;;;;;;;3.49;100.00;99597.53;7387718;19;20016;-53
2022/11/12 07:01:51;;;;;;;556.38;500.58;;;;;;;3.94;100.00;99602.28;7386331;19;20010;-49
2022/11/12 07:04:43;;;;;;;548.72;494.90;;;;;;;3.86;100.00;99587.63;7384981;19;20014;-49
2022/11/12 07:07:35;;;;;;;549.15;495.38;;;;;;;3.79;100.00;99591.13;7382679;19;20078;-48
2022/11/12 07:10:27;;;;;;;559.88;504.67;;;;;;;4.35;100.00;99588.75;7387253;19;20018;-50
2022/11/12 07:13:22;;;;;;;573.58;516.67;;;;;;;4.05;100.00;99602.13;7384814;19;20010;-58
2022/11/12 07:16:17;;;;;;;552.22;496.50;;;;;;;4.15;100.00;99590.72;7385290;19;20011;-55
2022/11/12 07:19:11;;;;;;;567.15;510.85;;;;;;;4.32;100.00;99583.56;7384319;19;20018;-51
2022/11/12 07:22:03;;;;;;;577.13;519.90;;;;;;;4.44;100.00;99580.78;7378906;19;20014;-53
2022/11/12 07:24:56;;;;;;;561.55;506.67;;;;;;;4.77;100.00;99582.91;7389388;19;20018;-54
2022/11/12 07:27:49;;;;;;;562.50;507.42;;;;;;;4.48;100.00;99579.88;7387855;19;20011;-51
2022/11/12 07:30:43;;;;;;;580.25;521.90;;;;;;;4.69;100.00;99580.41;7382566;19;20021;-50
2022/11/12 07:33:36;;;;;;;590.83;534.08;;;;;;;4.81;100.00;99574.16;7384107;19;20011;-53
2022/11/12 07:36:31;;;;;;;566.47;510.95;;;;;;;5.31;100.00;99579.41;7387529;19;20123;-49
2022/11/12 07:39:23;;;;;;;582.05;525.40;;;;;;;5.03;100.00;99580.75;7385570;19;20015;-50
2022/11/12 07:42:15;;;;;;;569.08;512.70;;;;;;;5.20;100.00;99567.44;7381777;19;20478;-51
2022/11/12 07:45:06;;;;;;;563.95;509.20;;;;;;;5.54;100.00;99574.63;7387115;19;20016;-50
2022/11/12 07:48:04;;;;;;;546.38;492.23;;;;;;;5.40;100.00;99581.84;7387433;19;20015;-51
2022/11/12 07:50:55;;;;;;;544.50;489.13;;;;;;;5.50;100.00;99578.19;7380558;19;20010;-52
2022/11/12 07:53:48;;;;;;;530.40;477.35;;;;;;;5.62;100.00;99584.91;7383828;19;20375;-49
2022/11/12 07:56:40;;;;;;;546.58;492.63;;;;;;;5.73;100.00;99582.97;7389902;19;20010;-54
2022/11/12 07:59:32;;;;;;;487.73;439.25;;;;;;;5.83;100.00;99581.91;7383379;19;20011;-49
2022/11/12 08:02:23;;;;;;;469.05;421.65;;;;;;;5.81;100.00;99579.31;7389987;19;20090;-50
2022/11/12 08:05:20;;;;;;;445.20;399.45;;;;;;;5.77;100.00;99590.72;7387580;19;20014;-55
2022/11/12 08:08:12;;;;;;;485.48;436.50;;;;;;;5.98;100.00;99589.44;7387499;19;20011;-49
2022/11/12 08:11:05;;;;;;;469.73;423.10;;;;;;;5.98;100.00;99584.22;7385161;19;20323;-57
2022/11/12 08:13:57;;;;;;;452.25;406.00;;;;;;;6.13;100.00;99592.59;7387183;19;20449;-52
2022/11/12 08:16:49;;;;;;;462.23;415.42;;;;;;;6.20;100.00;99594.19;7390090;19;20082;-52
2022/11/12 08:19:41;;;;;;;472.08;424.48;;;;;;;6.34;100.00;99600.03;7379437;19;20070;-50
2022/11/12 08:22:37;;;;;;;477.77;430.80;;;;;;;6.61;100.00;99607.25;7390319;19;20498;-50
2022/11/12 08:25:31;;;;;;;476.95;430.15;;;;;;;6.49;100.00;99606.66;7387945;19;20034;-50
2022/11/12 08:28:23;;;;;;;489.85;440.40;;;;;;;6.32;100.00;99604.41;7383278;19;20373;-49
2022/11/12 08:31:17;;;;;;;460.40;413.10;;;;;;;6.38;100.00;99604.28;7387610;19;20048;-49
2022/11/12 08:34:15;;;;;;;467.80;420.85;;;;;;;6.47;100.00;99601.47;7387441;19;20019;-51
2022/11/12 08:37:07;;;;;;;469.02;421.98;;;;;;;6.58;100.00;99602.09;7385660;19;20393;-49
2022/11/12 08:40:02;;;;;;;472.75;424.80;;;;;;;6.57;100.00;99600.38;7382718;19;20408;-58
2022/11/12 08:42:53;;;;;;;470.10;423.00;;;;;;;6.73;100.00;99606.97;7386366;19;20337;-51
2022/11/12 08:45:47;;;;;;;463.27;416.23;;;;;;;6.76;100.00;99603.44;7387367;19;20472;-50
2022/11/12 08:48:39;;;;;;;558.47;500.88;;;;;;;6.80;100.00;99598.09;7381605;19;20327;-50
2022/11/12 08:51:31;;;;;;;465.30;418.25;;;;;;;6.81;100.00;99610.28;7378398;19;20031;-48
2022/11/12 08:54:23;;;;;;;454.15;407.52;;;;;;;6.91;100.00;99601.34;7384886;19;20019;-49
2022/11/12 08:57:17;;;;;;;472.13;423.73;;;;;;;6.89;100.00;99607.50;7381655;19;20151;-49
2022/11/12 09:00:10;;;;;;;447.67;401.58;;;;;;;6.92;100.00;99603.03;7385447;19;20043;-50
2022/11/12 09:03:05;;;;;;;471.15;423.25;;;;;;;7.05;100.00;99607.09;7386660;19;20002;-49
2022/11/12 09:05:58;;;;;;;477.38;428.70;;;;;;;6.99;100.00;99604.63;7386050;19;20127;-50
2022/11/12 09:08:50;;;;;;;473.05;424.88;;;;;;;7.08;100.00;99608.78;7381300;19;20014;-53
2022/11/12 09:11:44;;;;;;;451.00;404.70;;;;;;;7.29;100.00;99606.50;7387992;19;20006;-49
2022/11/12 09:14:39;;;;;;;464.45;417.60;;;;;;;7.40;100.00;99612.31;7386653;19;20082;-51
2022/11/12 09:17:34;;;;;;;472.70;424.50;;;;;;;7.54;100.00;99610.22;7380833;19;20375;-47
2022/11/12 09:20:28;;;;;;;487.40;439.20;;;;;;;7.51;100.00;99612.06;7384883;19;20022;-50
2022/11/12 09:23:21;;;;;;;472.00;425.08;;;;;;;7.33;100.00;99616.00;7386908;19;20018;-50
2022/11/12 09:26:13;;;;;;;486.95;437.92;;;;;;;7.47;100.00;99619.13;7384883;19;20716;-57
2022/11/12 09:29:05;;;;;;;473.73;425.42;;;;;;;7.55;100.00;99618.94;7386995;19;20450;-52
2022/11/12 09:32:00;;;;;;;483.15;434.40;;;;;;;7.60;100.00;99615.28;7385873;19;20465;-49
2022/11/12 09:34:52;;;;;;;446.38;400.73;;;;;;;7.42;100.00;99621.00;7384421;19;20466;-51
2022/11/12 09:37:45;;;;;;;460.58;413.20;;;;;;;7.79;100.00;99619.16;7382176;19;20032;-54
2022/11/12 09:41:01;;;;;;;453.23;406.40;;;;;;;7.54;100.00;99611.97;7386443;19;20486;-49
2022/11/12 09:43:56;;;;;;;479.92;431.52;;;;;;;7.50;100.00;99615.59;7386251;19;20011;-49
2022/11/12 09:46:54;;;;;;;459.50;411.98;;;;;;;7.73;100.00;99611.44;7387839;19;20022;-50
2022/11/12 09:49:53;;;;;;;469.42;420.40;;;;;;;7.74;100.00;99625.41;7385807;19;20007;-49
2022/11/12 09:52:47;;;;;;;487.25;437.23;;;;;;;7.65;100.00;99623.03;7380167;19;20470;-49
2022/11/12 09:55:44;;;;;;;454.55;407.45;;;;;;;7.69;100.00;99622.91;7386796;19;20031;-54
2022/11/12 09:58:37;;;;;;;492.17;441.75;;;;;;;7.60;100.00;99617.91;7385183;19;20018;-52
2022/11/12 10:01:40;;;;;;;475.15;426.33;;;;;;;7.58;100.00;99616.25;7384437;19;21110;-48
2022/11/12 10:04:55;;;;;;;496.63;444.65;;;;;;;7.70;100.00;99613.28;7385030;19;20006;-48
2022/11/12 10:08:02;;;;;;;491.30;439.38;;;;;;;7.52;100.00;99622.50;7387409;19;20014;-49
2022/11/12 10:10:55;;;;;;;489.20;437.85;;;;;;;7.72;100.00;99625.44;7389833;19;20019;-52
2022/11/12 10:14:02;;;;;;;460.48;412.83;;;;;;;7.70;100.00;99631.63;7393217;19;20019;-49
2022/11/12 10:17:06;;;;;;;456.52;409.58;;;;;;;7.59;100.00;99631.03;7393854;19;20044;-51
2022/11/12 10:20:12;;;;;;;464.52;417.17;;;;;;;7.76;100.00;99634.09;7388503;19;20069;-49
2022/11/12 10:23:19;;;;;;;474.92;426.67;;;;;;;7.94;100.00;99623.97;7390022;19;20015;-50
2022/11/12 10:26:18;;;;;;;463.92;415.73;;;;;;;7.76;100.00;99632.31;7392752;19;20341;-51
2022/11/12 10:29:22;;;;;;;466.27;418.40;;;;;;;7.64;100.00;99637.88;7386488;19;20010;-51
2022/11/12 10:32:21;;;;;;;465.75;418.85;;;;;;;7.67;100.00;99635.19;7388626;19;20037;-53
2022/11/12 10:35:18;;;;;;;495.95;447.52;;;;;;;7.85;100.00;99631.22;7390251;19;20480;-51
2022/11/12 10:38:12;;;;;;;489.83;440.92;;;;;;;7.56;100.00;99633.72;7391353;19;20007;-50
2022/11/12 10:41:08;;;;;;;474.27;426.25;;;;;;;7.71;100.00;99633.34;7392204;19;20020;-50
2022/11/12 10:44:03;;;;;;;465.90;417.52;;;;;;;7.72;100.00;99643.78;7388475;19;20015;-52
2022/11/12 10:46:54;;;;;;;446.30;400.15;;;;;;;7.58;100.00;99627.56;7389723;19;20048;-49
2022/11/12 10:49:46;;;;;;;461.77;414.45;;;;;;;7.60;100.00;99625.78;7392011;19;20018;-50
2022/11/12 10:52:41;;;;;;;451.83;404.63;;;;;;;7.72;100.00;99629.81;7386717;19;20010;-51
2022/11/12 10:55:35;;;;;;;447.73;401.67;;;;;;;7.60;100.00;99636.25;7390293;19;20029;-49
2022/11/12 10:58:27;;;;;;;452.05;405.70;;;;;;;7.91;100.00;99625.81;7391801;19;20014;-49
2022/11/12 11:01:23;;;;;;;482.92;433.73;;;;;;;8.04;100.00;99630.69;7388996;19;20047;-49
2022/11/12 11:04:25;;;;;;;464.35;416.65;;;;;;;7.92;100.00;99628.41;7391193;19;20011;-54
2022/11/12 11:07:27;;;;;;;454.80;407.88;;;;;;;7.90;100.00;99624.94;7391968;19;20066;-50
2022/11/12 11:10:31;;;;;;;460.20;413.85;;;;;;;7.94;100.00;99625.72;7390310;19;20015;-53
2022/11/12 11:13:33;;;;;;;457.83;411.08;;;;;;;7.84;100.00;99629.50;7391844;19;20077;-51
2022/11/12 11:16:26;;;;;;;458.77;412.35;;;;;;;7.95;100.00;99630.91;7390782;19;20516;-49
2022/11/12 11:19:18;;;;;;;458.60;411.67;;;;;;;7.98;100.00;99625.59;7385257;19;20014;-50
2022/11/12 11:22:28;;;;;;;466.25;419.20;;;;;;;7.82;100.00;99613.84;7392306;19;20362;-47
2022/11/12 11:25:32;;;;;;;461.50;414.48;;;;;;;8.04;100.00;99612.34;7391750;19;20014;-49
2022/11/12 11:28:32;;;;;;;462.98;415.52;;;;;;;7.87;100.00;99613.72;7390585;19;20018;-52
2022/11/12 11:31:34;;;;;;;457.45;410.10;;;;;;;7.92;100.00;99620.53;7390730;19;20015;-51
2022/11/12 11:34:43;;;;;;;449.70;402.25;;;;;;;7.95;100.00;99625.69;7387257;19;20470;-50
2022/11/12 11:37:38;;;;;;;456.00;408.42;;;;;;;8.08;100.00;99618.38;7386019;19;20018;-47
2022/11/12 11:40:37;;;;;;;450.15;404.02;;;;;;;7.91;100.00;99621.41;7387850;19;20015;-51
2022/11/12 11:43:47;;;;;;;449.48;403.92;;;;;;;7.81;100.00;99617.34;7386839;19;20014;-48
2022/11/12 11:46:52;;;;;;;453.42;407.48;;;;;;;8.02;100.00;99614.13;7387831;19;20126;-53
2022/11/12 11:50:02;;;;;;;453.10;406.52;;;;;;;7.81;100.00;99612.13;7388461;19;20043;-49
2022/11/12 11:53:07;;;;;;;448.45;402.05;;;;;;;8.08;100.00;99613.13;7390189;19;20014;-49
2022/11/12 11:56:08;;;;;;;451.60;404.83;;;;;;;7.95;100.00;99625.69;7389364;19;20019;-51
2022/11/12 11:59:19;;;;;;;470.17;422.45;;;;;;;7.82;100.00;99621.69;7383300;19;20428;-47
2022/11/12 12:02:37;;;;;;;476.45;428.40;;;;;;;7.90;100.00;99613.59;7384833;19;20035;-47
2022/11/12 12:05:44;;;;;;;462.77;415.08;;;;;;;8.02;100.00;99615.91;7385390;19;20021;-52
2022/11/12 12:08:46;;;;;;;469.60;422.13;;;;;;;7.94;100.00;99610.00;7384390;19;20370;-48
2022/11/12 12:11:52;;;;;;;457.90;411.10;;;;;;;7.80;100.00;99607.75;7384982;19;20017;-57
2022/11/12 12:14:58;;;;;;;458.52;411.63;;;;;;;7.79;100.00;99605.19;7386554;19;20018;-49
2022/11/12 12:18:01;;;;;;;458.58;411.70;;;;;;;8.00;100.00;99605.47;7387227;19;20010;-44
2022/11/12 12:21:00;;;;;;;457.45;410.35;;;;;;;7.78;100.00;99603.47;7387129;19;20011;-45
2022/11/12 12:24:00;;;;;;;436.95;390.90;;;;;;;7.66;100.00;99591.56;7387804;19;20469;-48
2022/11/12 12:27:01;;;;;;;455.92;408.20;;;;;;;7.76;100.00;99592.19;7385246;19;20045;-46
2022/11/12 12:30:02;;;;;;;453.58;406.02;;;;;;;7.80;100.00;99594.66;7382908;19;20007;-48
2022/11/12 12:33:01;;;;;;;459.98;413.58;;;;;;;7.79;100.00;99595.56;7387841;19;20014;-49
2022/11/12 12:36:00;;;;;;;469.73;423.67;;;;;;;7.88;100.00;99595.31;7388838;19;20014;-46
2022/11/12 12:38:57;;;;;;;457.05;410.48;;;;;;;7.66;100.00;99599.41;7388025;19;20007;-46
2022/11/12 12:41:58;;;;;;;460.88;413.17;;;;;;;7.67;100.00;99595.91;7377318;19;20423;-48
2022/11/12 12:48:22;;;;;;;454.73;407.33;;;;;;;7.67;100.00;99598.53;7376314;19;20027;-49
2022/11/12 12:51:15;;;;;;;449.55;403.40;;;;;;;7.46;100.00;99592.97;7373465;19;20742;-59
2022/11/12 12:54:09;;;;;;;446.90;401.42;;;;;;;7.44;100.00;99587.81;7379366;19;20011;-50
2022/11/12 12:57:06;;;;;;;454.45;409.08;;;;;;;7.62;100.00;99596.94;7380476;19;20010;-53
2022/11/12 13:00:47;;;;;;;480.52;431.63;;;;;;;7.38;100.00;99598.44;7375714;19;20011;-51
2022/11/12 13:03:57;;;;;;;453.42;407.38;;;;;;;7.35;100.00;99593.25;7381975;19;20021;-50
2022/11/12 13:06:59;;;;;;;455.60;409.58;;;;;;;7.23;100.00;99601.44;7383636;19;20328;-47
2022/11/12 13:09:52;;;;;;;458.17;412.17;;;;;;;7.43;100.00;99607.00;7383193;19;20013;-50
2022/11/12 13:13:11;;;;;;;475.08;426.77;;;;;;;7.14;100.00;99608.66;7376886;19;20098;-49
2022/11/12 13:16:09;;;;;;;470.55;422.60;;;;;;;7.27;100.00;99613.53;7378300;19;20021;-46
2022/11/12 13:19:08;;;;;;;465.10;418.88;;;;;;;7.11;100.00;99608.72;7379022;19;20025;-48
2022/11/12 13:22:30;;;;;;;479.00;431.88;;;;;;;7.17;100.00;99609.41;7384561;19;20022;-46
2022/11/12 13:25:33;;;;;;;470.95;424.38;;;;;;;7.01;100.00;99599.34;7377115;19;20081;-53
2022/11/12 13:28:28;;;;;;;498.23;450.70;;;;;;;7.10;100.00;99597.38;7376971;19;20049;-48
2022/11/12 13:31:36;;;;;;;485.83;438.55;;;;;;;6.98;100.00;99596.81;7377768;19;20007;-55